Terminal Aerodrome Forecast
Issued by NWS Cleveland, OH

Home | Current Version | Previous Version | Text Only | Print | Product List | Glossary On
Versions: 1 2 3 4 5 6 7 8 9 10 11 12 13 14 15 16 17 18 19 20 21
000
FTUS41 KCLE 282028 AAE
TAFYNG
TAF AMD
KYNG 282028Z 2820/2918 21010KT P6SM VCTS BKN025CB BKN050
      TEMPO 2821/2901 VRB20G35KT 2SM -TSRA OVC012CB
     FM290600 25008KT P6SM BKN025 OVC080
     FM291500 25010KT P6SM SCT040=

USA.gov is the U.S. government's official web portal to all federal, state and local government web resources and services.